Terminal Aerodrome Forecast
Issued by NWS

Home | Current Version | Previous Version | Text Only | Print | Product List | Glossary On
Versions: 1 2 3 4 5 6 7 8 9 10 11 12 13 14 15 16 17
000
FTAK31 PAJN 190100 AAA
TAFAJN
TAF AMD
PAJN 190103Z 1901/1924 11014KT P6SM -RA SCT025 OVC045
     FM190400 11017G25KT 5SM -RA BR SCT015 OVC030
     FM191000 11025G38KT 4SM RA BR BKN015 OVC025
     FM192000 12017G25KT 6SM -RA BR SCT015 OVC030=

USA.gov is the U.S. government's official web portal to all federal, state and local government web resources and services.